createdAt,value
2022-12-28T00:02:17.158Z,21.43
2022-12-28T00:04:44.577Z,21.00
2022-12-28T00:07:11.853Z,18.87
2022-12-28T00:09:39.027Z,21.20
2022-12-28T00:12:06.341Z,20.07
2022-12-28T00:14:33.463Z,29.40
2022-12-28T00:17:00.688Z,23.90
2022-12-28T00:19:27.899Z,21.07
2022-12-28T00:21:55.076Z,19.80
2022-12-28T00:24:23.814Z,22.57
2022-12-28T00:26:51.503Z,18.67
2022-12-28T00:29:18.861Z,17.30
2022-12-28T00:31:46.359Z,23.17
2022-12-28T00:34:13.728Z,22.83
2022-12-28T00:37:09.377Z,18.10
2022-12-28T00:39:28.092Z,18.53
2022-12-28T00:41:55.290Z,16.97
2022-12-28T00:44:22.491Z,21.87
2022-12-28T00:46:49.703Z,21.13
2022-12-28T00:49:16.899Z,25.17
2022-12-28T00:51:44.121Z,21.07
2022-12-28T00:54:11.395Z,17.40
2022-12-28T00:56:40.629Z,18.10
2022-12-28T00:59:07.830Z,19.60
2022-12-28T01:01:35.143Z,20.40
2022-12-28T01:04:02.496Z,22.73
2022-12-28T01:06:30.186Z,20.97
2022-12-28T01:08:57.515Z,20.47
2022-12-28T01:11:29.262Z,23.73
2022-12-28T01:13:57.829Z,18.43
2022-12-28T01:16:26.524Z,17.47
2022-12-28T01:18:54.800Z,19.57
2022-12-28T01:21:23.028Z,21.10
2022-12-28T01:23:50.560Z,18.30
2022-12-28T01:26:17.775Z,19.90
2022-12-28T01:28:44.951Z,19.90
2022-12-28T01:31:13.649Z,20.03
2022-12-28T01:33:40.913Z,19.70
2022-12-28T01:36:13.957Z,14.27
2022-12-28T01:38:41.135Z,21.20
2022-12-28T01:41:08.949Z,21.67
2022-12-28T01:43:42.126Z,18.23
2022-12-28T01:46:11.047Z,20.03
2022-12-28T01:48:41.225Z,18.10
2022-12-28T01:51:08.655Z,20.07
2022-12-28T01:53:35.860Z,18.63
2022-12-28T01:56:03.332Z,14.57
2022-12-28T01:58:33.202Z,15.70
2022-12-28T02:01:00.460Z,17.77
2022-12-28T02:03:28.980Z,13.07
2022-12-28T02:05:57.503Z,16.17
2022-12-28T02:08:27.040Z,16.87
2022-12-28T02:10:55.248Z,14.53
2022-12-28T02:13:23.819Z,15.00
2022-12-28T02:15:51.390Z,18.37
2022-12-28T02:18:19.561Z,14.07
2022-12-28T02:20:55.859Z,10.73
2022-12-28T02:23:36.203Z,12.73
2022-12-28T02:26:24.079Z,13.93
2022-12-28T02:28:54.325Z,14.90
2022-12-28T02:31:37.069Z,15.80
2022-12-28T02:34:15.386Z,17.23
2022-12-28T02:36:46.984Z,17.20
2022-12-28T02:39:18.735Z,15.10
2022-12-28T02:41:46.174Z,18.77
2022-12-28T02:44:33.585Z,11.90
2022-12-28T02:47:20.044Z,16.80
2022-12-28T02:50:05.810Z,15.00
2022-12-28T02:52:51.992Z,19.43
2022-12-28T02:55:56.866Z,13.07
2022-12-28T02:58:39.986Z,14.87
2022-12-28T03:01:07.221Z,15.17
2022-12-28T03:03:40.171Z,15.43
2022-12-28T03:06:45.766Z,20.17
2022-12-28T03:09:12.923Z,12.50
2022-12-28T03:11:42.774Z,13.87
2022-12-28T03:14:11.719Z,11.57
2022-12-28T03:16:59.188Z,15.10
2022-12-28T03:19:50.528Z,19.03
2022-12-28T03:22:40.211Z,15.33
2022-12-28T03:25:32.703Z,18.80
2022-12-28T03:28:19.355Z,16.63
2022-12-28T03:31:06.908Z,24.03
2022-12-28T03:33:36.282Z,14.13
2022-12-28T03:36:09.472Z,19.50
2022-12-28T03:38:45.854Z,15.80
2022-12-28T03:41:18.979Z,12.60
2022-12-28T03:43:47.537Z,13.37
2022-12-28T03:46:20.939Z,13.93
2022-12-28T03:48:48.477Z,12.90
2022-12-28T03:51:16.880Z,15.77
2022-12-28T03:53:47.692Z,10.97
2022-12-28T03:56:16.568Z,12.57
2022-12-28T03:58:43.764Z,8.30
2022-12-28T04:01:11.197Z,14.27
2022-12-28T04:03:38.478Z,13.30
2022-12-28T04:06:06.202Z,10.37
2022-12-28T04:08:33.677Z,8.93
2022-12-28T04:11:01.645Z,9.20
2022-12-28T04:13:31.992Z,12.07
2022-12-28T04:16:03.764Z,10.33
2022-12-28T04:18:31.869Z,10.73
2022-12-28T04:20:59.272Z,8.17
2022-12-28T04:23:26.499Z,13.23
2022-12-28T04:25:57.654Z,7.77
2022-12-28T04:28:25.063Z,12.43
2022-12-28T04:30:52.439Z,8.80
2022-12-28T04:33:19.645Z,10.23
2022-12-28T04:35:46.946Z,8.83
2022-12-28T04:38:14.160Z,11.73
2022-12-28T04:40:41.325Z,10.13
2022-12-28T04:43:08.496Z,10.77
2022-12-28T04:45:35.812Z,8.83
2022-12-28T04:48:03.165Z,9.43
2022-12-28T04:50:30.651Z,8.80
2022-12-28T04:52:59.585Z,8.40
2022-12-28T04:55:32.001Z,8.57
2022-12-28T04:58:00.679Z,12.70
2022-12-28T05:00:28.253Z,11.93
2022-12-28T05:02:55.503Z,12.00
2022-12-28T05:05:22.691Z,10.27
2022-12-28T05:07:49.860Z,11.00
2022-12-28T05:10:17.042Z,13.40
2022-12-28T05:12:44.212Z,14.67
2022-12-28T05:15:11.515Z,12.90
2022-12-28T05:17:38.733Z,11.47
2022-12-28T05:20:06.128Z,9.27
2022-12-28T05:22:39.066Z,9.03
2022-12-28T05:25:08.060Z,12.47
2022-12-28T05:27:35.267Z,10.27
2022-12-28T05:30:02.444Z,11.70
2022-12-28T05:32:29.624Z,11.90
2022-12-28T05:34:56.811Z,16.80
2022-12-28T05:37:23.998Z,13.87
2022-12-28T05:39:51.157Z,10.93
2022-12-28T05:42:18.369Z,11.13
2022-12-28T05:44:45.491Z,12.10
2022-12-28T05:47:14.209Z,12.93
2022-12-28T05:49:41.398Z,12.43
2022-12-28T05:52:08.566Z,9.23
2022-12-28T05:54:35.724Z,11.73
2022-12-28T05:57:02.937Z,12.23
2022-12-28T05:59:30.087Z,15.70
2022-12-28T06:01:57.359Z,25.20
2022-12-28T06:04:25.244Z,11.90
2022-12-28T06:06:54.261Z,16.67
2022-12-28T06:09:21.670Z,16.80
2022-12-28T06:11:48.977Z,12.50
2022-12-28T06:14:16.124Z,18.33
2022-12-28T06:16:44.075Z,14.13
2022-12-28T06:19:14.650Z,15.83
2022-12-28T06:21:42.480Z,15.53
2022-12-28T06:24:10.106Z,15.43
2022-12-28T06:26:38.504Z,14.90
2022-12-28T06:29:05.880Z,14.57
2022-12-28T06:31:34.778Z,23.07
2022-12-28T06:34:02.770Z,15.57
2022-12-28T06:36:32.130Z,20.00
2022-12-28T06:39:00.055Z,22.87
2022-12-28T06:41:27.884Z,16.90
2022-12-28T06:43:55.384Z,16.57
2022-12-28T06:46:23.384Z,25.43
2022-12-28T06:48:51.176Z,17.97
2022-12-28T06:51:22.697Z,18.23
2022-12-28T06:53:50.860Z,19.60
2022-12-28T06:56:19.163Z,21.73
2022-12-28T06:58:47.162Z,16.50
2022-12-28T07:01:16.155Z,15.50
2022-12-28T07:03:44.060Z,18.57
2022-12-28T07:06:11.551Z,15.80
2022-12-28T07:08:39.119Z,20.10
2022-12-28T07:11:07.943Z,16.67
2022-12-28T07:13:35.578Z,16.00
2022-12-28T07:16:06.574Z,16.10
2022-12-28T07:18:33.957Z,17.60
2022-12-28T07:21:02.280Z,14.67
2022-12-28T07:23:31.347Z,16.20
2022-12-28T07:25:59.493Z,13.53
2022-12-28T07:28:26.620Z,15.73
2022-12-28T07:30:53.818Z,12.97
2022-12-28T07:33:21.113Z,16.13
2022-12-28T07:35:48.310Z,13.83
2022-12-28T07:38:21.188Z,15.20
2022-12-28T07:40:48.797Z,19.00
2022-12-28T07:43:15.927Z,20.43
2022-12-28T07:45:43.339Z,16.30
2022-12-28T07:48:10.586Z,16.13
2022-12-28T07:50:38.269Z,13.80
2022-12-28T07:53:05.619Z,14.90
2022-12-28T07:55:33.150Z,15.10
2022-12-28T07:58:00.423Z,17.10
2022-12-28T08:00:27.573Z,12.43
2022-12-28T08:02:56.948Z,12.33
2022-12-28T08:05:24.597Z,12.27
2022-12-28T08:07:51.881Z,13.63
2022-12-28T08:10:19.035Z,14.07
2022-12-28T08:12:46.390Z,13.17
2022-12-28T08:15:13.639Z,16.90
2022-12-28T08:17:40.754Z,15.53
2022-12-28T08:20:08.147Z,20.30
2022-12-28T08:22:35.360Z,15.60
2022-12-28T08:25:02.511Z,17.23
2022-12-28T08:27:35.002Z,13.97
2022-12-28T08:30:05.982Z,16.43
2022-12-28T08:32:33.288Z,17.47
2022-12-28T08:35:00.483Z,16.53
2022-12-28T08:37:27.992Z,15.47
2022-12-28T08:39:55.168Z,10.40
2022-12-28T08:42:22.538Z,18.73
2022-12-28T08:44:49.841Z,15.40
2022-12-28T08:47:17.065Z,18.73
2022-12-28T08:49:44.655Z,17.07
2022-12-28T08:52:11.787Z,12.27
2022-12-28T08:54:39.548Z,11.77
2022-12-28T08:57:06.849Z,16.03
2022-12-28T08:59:34.007Z,19.17
2022-12-28T09:02:01.342Z,11.07
2022-12-28T09:04:28.652Z,11.80
2022-12-28T09:06:55.805Z,19.33
2022-12-28T09:09:22.990Z,17.03
2022-12-28T09:11:50.291Z,14.07
2022-12-28T09:14:23.217Z,19.50
2022-12-28T09:16:51.417Z,16.77
2022-12-28T09:19:18.584Z,19.63
2022-12-28T09:21:49.142Z,15.53
2022-12-28T09:24:16.725Z,20.60
2022-12-28T09:26:44.111Z,11.97
2022-12-28T09:29:12.311Z,14.67
2022-12-28T09:31:40.688Z,10.60
2022-12-28T09:36:58.584Z,15.60
2022-12-28T09:39:25.833Z,14.97
2022-12-28T09:41:53.168Z,12.27
2022-12-28T09:44:27.960Z,15.77
2022-12-28T09:47:01.353Z,13.17
2022-12-28T09:49:34.575Z,13.77
2022-12-28T09:52:09.688Z,13.30
2022-12-28T09:54:37.283Z,14.33
2022-12-28T09:57:04.508Z,11.50
2022-12-28T09:59:33.926Z,10.73
2022-12-28T10:02:02.680Z,11.63
2022-12-28T10:04:30.049Z,12.13
2022-12-28T10:07:01.884Z,13.30
2022-12-28T10:09:32.033Z,9.30
2022-12-28T10:12:01.287Z,14.97
2022-12-28T10:14:34.923Z,12.77
2022-12-28T10:17:02.477Z,10.97
2022-12-28T10:19:30.210Z,15.17
2022-12-28T10:22:05.284Z,14.23
2022-12-28T10:24:33.038Z,13.00
2022-12-28T10:27:01.267Z,15.00
2022-12-28T10:29:29.171Z,14.00
2022-12-28T10:31:58.550Z,13.40
2022-12-28T10:34:25.934Z,14.13
2022-12-28T10:36:53.939Z,13.70
2022-12-28T10:39:25.736Z,11.57
2022-12-28T10:41:54.363Z,16.70
2022-12-28T10:44:39.219Z,11.63
2022-12-28T10:47:17.560Z,9.77
2022-12-28T10:52:40.079Z,13.20
2022-12-28T10:55:33.503Z,11.73
2022-12-28T10:58:29.637Z,15.13
2022-12-28T11:01:03.282Z,11.83
2022-12-28T11:03:35.310Z,17.90
2022-12-28T11:06:08.890Z,12.50
2022-12-28T11:08:36.284Z,11.73
2022-12-28T11:11:03.591Z,12.77
2022-12-28T11:13:30.898Z,10.03
2022-12-28T11:15:58.597Z,13.63
2022-12-28T11:18:26.136Z,12.20
2022-12-28T11:20:54.633Z,13.33
2022-12-28T11:23:26.208Z,15.50
2022-12-28T11:25:53.502Z,22.60
2022-12-28T11:28:22.294Z,12.43
2022-12-28T11:30:51.387Z,11.47
2022-12-28T11:33:24.487Z,17.67
2022-12-28T11:35:59.403Z,11.40
2022-12-28T11:38:40.903Z,8.70
2022-12-28T11:41:11.340Z,9.23
2022-12-28T11:43:49.433Z,13.73
2022-12-28T11:46:23.124Z,12.60
2022-12-28T11:49:05.759Z,13.00
2022-12-28T11:51:34.500Z,10.53
2022-12-28T11:54:01.718Z,8.87
2022-12-28T11:56:28.994Z,10.07
2022-12-28T11:58:59.139Z,7.87
2022-12-28T12:01:29.529Z,13.33
2022-12-28T12:03:59.665Z,12.67
2022-12-28T12:06:42.638Z,10.60
2022-12-28T12:09:21.993Z,12.63
2022-12-28T12:11:49.973Z,9.60
2022-12-28T12:14:19.832Z,10.90
2022-12-28T12:16:52.696Z,10.20
2022-12-28T12:19:23.443Z,11.50
2022-12-28T12:21:59.744Z,9.67
2022-12-28T12:24:30.097Z,10.97
2022-12-28T12:27:00.242Z,13.43
2022-12-28T12:29:32.924Z,11.03
2022-12-28T12:32:05.171Z,18.53
2022-12-28T12:35:01.574Z,17.37
2022-12-28T12:37:29.064Z,17.67
2022-12-28T12:40:15.218Z,21.83
2022-12-28T12:42:42.423Z,34.00
2022-12-28T12:45:35.782Z,20.80
2022-12-28T12:48:13.975Z,15.43
2022-12-28T12:51:00.016Z,10.47
2022-12-28T12:53:27.352Z,12.13
2022-12-28T12:56:02.819Z,10.60
2022-12-28T12:58:48.662Z,10.33
2022-12-28T13:01:40.588Z,10.77
2022-12-28T13:04:09.381Z,11.43
2022-12-28T13:06:39.654Z,15.80
2022-12-28T13:09:09.883Z,13.27
2022-12-28T13:11:38.117Z,11.43
2022-12-28T13:14:05.696Z,11.50
2022-12-28T13:16:33.534Z,12.23
2022-12-28T13:19:02.172Z,10.47
2022-12-28T13:21:30.689Z,22.00
2022-12-28T13:23:57.915Z,10.30
2022-12-28T13:26:27.853Z,9.03
2022-12-28T13:29:02.445Z,17.53
2022-12-28T13:31:34.146Z,13.30
2022-12-28T13:34:05.130Z,10.60
2022-12-28T13:36:32.284Z,14.00
2022-12-28T13:39:13.070Z,8.33
2022-12-28T13:42:06.844Z,8.90
2022-12-28T13:44:37.098Z,10.60
2022-12-28T13:47:23.308Z,8.97
2022-12-28T13:49:53.478Z,8.63
2022-12-28T13:52:26.197Z,9.93
2022-12-28T13:54:55.382Z,8.00
2022-12-28T14:00:11.016Z,9.33
2022-12-28T14:02:40.360Z,11.53
2022-12-28T14:05:08.325Z,7.27
2022-12-28T14:07:36.624Z,6.70
2022-12-28T14:10:04.187Z,15.23
2022-12-28T14:12:32.030Z,7.23
2022-12-28T14:14:59.697Z,7.17
2022-12-28T14:17:27.127Z,6.73
2022-12-28T14:19:56.012Z,9.30
2022-12-28T14:22:27.527Z,7.33
2022-12-28T14:25:08.895Z,7.50
2022-12-28T14:27:37.846Z,9.73
2022-12-28T14:30:06.915Z,9.37
2022-12-28T14:32:42.331Z,19.43
2022-12-28T14:35:16.494Z,8.67
2022-12-28T14:37:46.594Z,12.33
2022-12-28T14:40:22.073Z,7.27
2022-12-28T14:42:50.498Z,9.30
2022-12-28T14:46:07.316Z,8.93
2022-12-28T14:48:37.067Z,10.17
2022-12-28T14:51:06.460Z,8.33
2022-12-28T14:53:33.886Z,11.73
2022-12-28T14:56:01.068Z,10.20
2022-12-28T14:58:50.797Z,8.43
2022-12-28T15:01:18.998Z,7.07
2022-12-28T15:03:49.447Z,7.37
2022-12-28T15:06:16.978Z,8.33
2022-12-28T15:08:47.480Z,8.27
2022-12-28T15:11:14.753Z,9.17
2022-12-28T15:13:43.184Z,7.87
2022-12-28T15:16:11.451Z,11.43
2022-12-28T15:18:44.870Z,8.83
2022-12-28T15:21:13.106Z,7.80
2022-12-28T15:23:40.850Z,10.17
2022-12-28T15:26:09.377Z,10.07
2022-12-28T15:28:38.272Z,11.07
2022-12-28T15:31:06.898Z,13.57
2022-12-28T15:33:34.693Z,8.90
2022-12-28T15:36:05.150Z,8.77
2022-12-28T15:38:32.413Z,8.83
2022-12-28T15:40:59.610Z,10.50
2022-12-28T15:43:26.790Z,9.80
2022-12-28T15:45:57.729Z,11.40
2022-12-28T15:48:24.995Z,11.20
2022-12-28T15:50:52.113Z,11.70
2022-12-28T15:53:19.317Z,14.23
2022-12-28T15:55:58.372Z,15.80
2022-12-28T15:58:25.546Z,11.10
2022-12-28T16:00:52.722Z,15.00
2022-12-28T16:03:20.041Z,10.53
2022-12-28T16:05:48.278Z,12.43
2022-12-28T16:08:15.422Z,14.13
2022-12-28T16:10:42.551Z,18.00
2022-12-28T16:13:09.707Z,13.33
2022-12-28T16:15:36.858Z,15.70
2022-12-28T16:18:04.055Z,12.50
2022-12-28T16:20:31.239Z,11.47
2022-12-28T16:22:58.475Z,11.57
2022-12-28T16:25:25.675Z,13.37
2022-12-28T16:27:52.884Z,13.73
2022-12-28T16:30:20.123Z,14.27
2022-12-28T16:32:48.320Z,13.40
2022-12-28T16:35:15.722Z,12.73
2022-12-28T16:37:43.249Z,14.10
2022-12-28T16:40:10.851Z,15.03
2022-12-28T16:42:38.136Z,15.27
2022-12-28T16:45:05.451Z,16.03
2022-12-28T16:47:32.602Z,13.50
2022-12-28T16:49:59.789Z,13.27
2022-12-28T16:52:26.977Z,14.70
2022-12-28T16:54:54.309Z,13.13
2022-12-28T16:57:21.451Z,16.50
2022-12-28T16:59:48.653Z,16.10
2022-12-28T17:02:16.121Z,15.37
2022-12-28T17:04:43.906Z,15.00
2022-12-28T17:07:11.046Z,16.00
2022-12-28T17:09:38.208Z,20.03
2022-12-28T17:12:05.473Z,16.30
2022-12-28T17:14:37.793Z,13.40
2022-12-28T17:17:06.027Z,12.43
2022-12-28T17:19:33.509Z,14.00
2022-12-28T17:22:00.650Z,15.13
2022-12-28T17:24:27.950Z,11.67
2022-12-28T17:26:55.249Z,14.73
2022-12-28T17:29:22.576Z,14.40
2022-12-28T17:31:49.735Z,20.00
2022-12-28T17:34:16.915Z,21.00
2022-12-28T17:36:44.120Z,17.07
2022-12-28T17:39:11.315Z,16.90
2022-12-28T17:41:38.521Z,14.27
2022-12-28T17:44:06.137Z,16.63
2022-12-28T17:46:37.909Z,19.53
2022-12-28T17:49:05.229Z,17.27
2022-12-28T17:51:33.478Z,14.87
2022-12-28T17:54:00.630Z,20.27
2022-12-28T17:56:28.191Z,20.60
2022-12-28T17:58:56.878Z,18.07
2022-12-28T18:01:24.289Z,20.00
2022-12-28T18:03:51.688Z,19.17
2022-12-28T18:06:18.959Z,16.23
2022-12-28T18:08:46.317Z,18.00
2022-12-28T18:11:13.730Z,20.03
2022-12-28T18:13:41.435Z,17.60
2022-12-28T18:16:09.645Z,21.17
2022-12-28T18:18:36.798Z,17.57
2022-12-28T18:21:05.463Z,14.90
2022-12-28T18:23:32.803Z,16.47
2022-12-28T18:26:07.212Z,20.03
2022-12-28T18:28:34.851Z,23.07
2022-12-28T18:31:03.383Z,17.10
2022-12-28T18:33:31.320Z,18.07
2022-12-28T18:35:59.448Z,17.73
2022-12-28T18:38:26.831Z,17.83
2022-12-28T18:40:55.206Z,21.37
2022-12-28T18:43:22.387Z,22.57
2022-12-28T18:45:58.602Z,25.63
2022-12-28T18:48:26.626Z,30.03
2022-12-28T18:50:54.047Z,25.30
2022-12-28T18:53:21.519Z,23.53
2022-12-28T18:55:56.242Z,25.30
2022-12-28T18:58:23.579Z,23.93
2022-12-28T19:00:50.782Z,32.67
2022-12-28T19:03:18.161Z,25.23
2022-12-28T19:05:45.505Z,14.07
2022-12-28T19:08:12.743Z,16.80
2022-12-28T19:10:39.989Z,19.87
2022-12-28T19:13:07.172Z,18.23
2022-12-28T19:15:34.328Z,26.77
2022-12-28T19:18:01.620Z,17.90
2022-12-28T19:20:29.437Z,16.77
2022-12-28T19:22:56.613Z,15.17
2022-12-28T19:25:23.777Z,14.07
2022-12-28T19:27:51.013Z,18.20
2022-12-28T19:30:18.345Z,11.90
2022-12-28T19:32:45.634Z,16.70
2022-12-28T19:35:12.822Z,19.60
2022-12-28T19:37:39.969Z,23.70
2022-12-28T19:40:07.570Z,22.87
2022-12-28T19:42:34.782Z,25.97
2022-12-28T19:45:08.037Z,24.90
2022-12-28T19:47:36.988Z,35.60
2022-12-28T19:50:04.519Z,30.03
2022-12-28T19:52:31.686Z,25.17
2022-12-28T19:54:58.944Z,27.03
2022-12-28T19:57:26.103Z,23.37
2022-12-28T19:59:53.339Z,21.37
2022-12-28T20:02:20.634Z,17.13
2022-12-28T20:04:47.867Z,19.50
2022-12-28T20:07:15.038Z,17.57
2022-12-28T20:09:42.204Z,14.07
2022-12-28T20:12:09.394Z,16.07
2022-12-28T20:14:36.540Z,15.07
2022-12-28T20:17:03.693Z,17.17
2022-12-28T20:19:30.853Z,17.17
2022-12-28T20:21:58.126Z,18.70
2022-12-28T20:24:25.354Z,17.47
2022-12-28T20:26:57.969Z,16.70
2022-12-28T20:29:28.743Z,16.03
2022-12-28T20:31:55.951Z,16.90
2022-12-28T20:34:24.688Z,13.67
2022-12-28T20:36:51.918Z,19.63
2022-12-28T20:39:19.043Z,19.60
2022-12-28T20:42:04.787Z,21.03
2022-12-28T20:44:34.036Z,21.80
2022-12-28T20:47:02.095Z,18.80
2022-12-28T20:49:29.764Z,17.77
2022-12-28T20:51:56.958Z,19.30
2022-12-28T20:54:24.687Z,27.80
2022-12-28T20:56:55.334Z,23.53
2022-12-28T20:59:24.692Z,19.83
2022-12-28T21:01:52.368Z,24.23
2022-12-28T21:04:19.761Z,23.90
2022-12-28T21:06:47.119Z,29.53
2022-12-28T21:09:14.292Z,17.93
2022-12-28T21:11:41.839Z,32.80
2022-12-28T21:14:09.045Z,33.93
2022-12-28T21:16:36.411Z,18.30
2022-12-28T21:19:03.731Z,17.63
2022-12-28T21:21:30.935Z,24.43
2022-12-28T21:23:58.120Z,23.30
2022-12-28T21:26:25.852Z,44.00
2022-12-28T21:28:53.135Z,36.33
2022-12-28T21:31:20.492Z,30.43
2022-12-28T21:33:47.957Z,30.27
2022-12-28T21:36:16.425Z,21.50
2022-12-28T21:38:44.235Z,25.23
2022-12-28T21:41:15.645Z,43.40
2022-12-28T21:43:42.819Z,56.37
2022-12-28T21:46:12.884Z,42.00
2022-12-28T21:48:40.469Z,27.13
2022-12-28T21:51:35.328Z,27.87
2022-12-28T21:54:07.407Z,27.03
2022-12-28T21:56:35.536Z,24.53
2022-12-28T21:59:03.032Z,118.80
2022-12-28T22:01:49.073Z,67.03
2022-12-28T22:04:36.953Z,21.83
2022-12-28T22:07:04.930Z,20.67
2022-12-28T22:09:52.575Z,18.93
2022-12-28T22:12:34.893Z,17.03
2022-12-28T22:15:21.514Z,14.83
2022-12-28T22:17:48.663Z,14.13
2022-12-28T22:20:16.925Z,12.80
2022-12-28T22:22:44.532Z,17.43
2022-12-28T22:25:12.575Z,18.27
2022-12-28T22:27:39.939Z,15.63
2022-12-28T22:30:07.540Z,24.20
2022-12-28T22:32:34.704Z,11.37
2022-12-28T22:35:01.883Z,11.53
2022-12-28T22:37:29.068Z,9.40
2022-12-28T22:39:56.483Z,10.97
2022-12-28T22:42:23.691Z,10.83
2022-12-28T22:44:50.858Z,8.90
2022-12-28T22:47:18.519Z,10.00
2022-12-28T22:49:45.741Z,11.23
2022-12-28T22:52:12.939Z,12.97
2022-12-28T22:54:40.267Z,13.77
2022-12-28T22:57:07.579Z,17.37
2022-12-28T22:59:35.005Z,21.63
2022-12-28T23:02:02.431Z,13.83
2022-12-28T23:04:30.071Z,12.67
2022-12-28T23:07:03.076Z,12.10
2022-12-28T23:09:30.943Z,13.57
2022-12-28T23:11:58.233Z,11.10
2022-12-28T23:14:44.621Z,12.83
2022-12-28T23:17:13.401Z,13.13
2022-12-28T23:20:00.468Z,12.83
2022-12-28T23:22:48.084Z,15.53
2022-12-28T23:25:35.642Z,10.57
2022-12-28T23:28:03.629Z,13.37
2022-12-28T23:30:31.029Z,10.40
2022-12-28T23:32:58.331Z,10.00
2022-12-28T23:35:26.375Z,8.73
2022-12-28T23:37:54.071Z,10.07
2022-12-28T23:40:22.018Z,8.87
2022-12-28T23:42:49.694Z,11.93
2022-12-28T23:45:18.136Z,9.33
2022-12-28T23:47:45.742Z,9.43
2022-12-28T23:50:14.200Z,8.03
2022-12-28T23:52:41.986Z,10.33
2022-12-28T23:55:10.022Z,11.23
2022-12-28T23:57:37.262Z,9.40
